CPX214 Details

Departure: Benito Juárez International Airport (MMMX) at 0600 UTC
Arrival: Don Miguel Hidalgo y Costilla International Airport (MMGL) at 0700 UTC
Route: TLC6A TLC UJ18 UPN UJ3 ONGEL ONGEL1A


Current Weather Information
MMMX 221045Z 07005KT 7SM SKC 10/07 A3033 NOSIG RMK HZY
MMGL 221041Z 00000KT 10SM SKC 12/07 A3018